Time;durP1;ratioP1;P1;durP2;ratioP2;P2;SDS_P1;SDS_P2;PMS_P1;PMS_P2;Temp;Humidity;BMP_temperature;BMP_pressure;BME280_temperature;BME280_humidity;BME280_pressure;Samples;Min_cycle;Max_cycle;Signal;HPM_P1;HPM_P2
2022/11/01 00:01:41;;;;;;;;;;;15.80;99.90;;;;;;5049074;28;19913;-85
2022/11/01 00:04:07;;;;;;;;;;;15.90;99.90;;;;;;5031240;28;19913;-85
2022/11/01 00:06:33;;;;;;;;;;;15.80;99.90;;;;;;5030886;28;19913;-84
2022/11/01 00:08:59;;;;;;;;;;;15.80;99.90;;;;;;5031008;28;19959;-85
2022/11/01 00:11:27;;;;;;;;;;;15.60;99.90;;;;;;5048713;28;20445;-87
2022/11/01 00:13:53;;;;;;;;;;;15.50;99.90;;;;;;5030325;28;19912;-85
2022/11/01 00:16:18;;;;;;;;;;;15.50;99.90;;;;;;5030713;28;19928;-87
2022/11/01 00:18:44;;;;;;;;;;;15.50;99.90;;;;;;5048856;28;19952;-84
2022/11/01 00:21:10;;;;;;;;;;;15.50;99.90;;;;;;5048940;28;19917;-84
2022/11/01 00:23:36;;;;;;;;;;;15.60;99.90;;;;;;5049165;28;19913;-84
2022/11/01 00:26:02;;;;;;;;;;;15.60;99.90;;;;;;5031208;28;20511;-84
2022/11/01 00:28:27;;;;;;;;;;;15.60;99.90;;;;;;5048748;28;19963;-84
2022/11/01 00:30:54;;;;;;;;;;;15.60;99.90;;;;;;5048350;28;19963;-85
2022/11/01 00:33:19;;;;;;;;;;;15.50;99.90;;;;;;5030742;28;19944;-85
2022/11/01 00:35:47;;;;;;;;;;;15.50;99.90;;;;;;5048387;28;19960;-83
2022/11/01 00:38:13;;;;;;;;;;;15.50;99.90;;;;;;5030305;28;19913;-83
2022/11/01 00:40:39;;;;;;;;;;;15.70;99.90;;;;;;5042349;28;20500;-83
2022/11/01 00:43:04;;;;;;;;;;;15.70;99.90;;;;;;5041140;28;19920;-85
2022/11/01 00:45:30;;;;;;;;;;;15.70;99.90;;;;;;5029713;28;19913;-85
2022/11/01 00:47:55;;;;;;;;;;;15.70;99.90;;;;;;5048010;28;19923;-84
2022/11/01 00:50:21;;;;;;;;;;;15.70;99.90;;;;;;5020685;28;19913;-83
2022/11/01 00:52:46;;;;;;;;;;;15.70;99.90;;;;;;5047733;28;19956;-81
2022/11/01 00:55:12;;;;;;;;;;;15.60;99.90;;;;;;5047491;28;19920;-81
2022/11/01 00:57:37;;;;;;;;;;;15.60;99.90;;;;;;5030032;28;19959;-82
2022/11/01 01:00:04;;;;;;;;;;;15.50;99.90;;;;;;5047398;28;20638;-82
2022/11/01 01:02:29;;;;;;;;;;;15.50;99.90;;;;;;5047399;28;19920;-82
2022/11/01 01:04:55;;;;;;;;;;;15.20;99.90;;;;;;5047461;28;19913;-82
2022/11/01 01:07:20;;;;;;;;;;;15.20;99.90;;;;;;5047490;28;20379;-82
2022/11/01 01:09:46;;;;;;;;;;;15.20;99.90;;;;;;5029413;28;19991;-83
2022/11/01 01:12:11;;;;;;;;;;;15.30;99.90;;;;;;5047805;28;20023;-82
2022/11/01 01:14:37;;;;;;;;;;;15.20;99.90;;;;;;5046976;28;19960;-83
2022/11/01 01:17:02;;;;;;;;;;;15.30;99.90;;;;;;5048423;28;19944;-82
2022/11/01 01:19:28;;;;;;;;;;;15.50;99.90;;;;;;5052433;28;19913;-83
2022/11/01 01:21:54;;;;;;;;;;;15.50;99.90;;;;;;5047368;28;19912;-82
2022/11/01 01:24:19;;;;;;;;;;;15.50;99.90;;;;;;5029864;28;19974;-82
2022/11/01 01:26:45;;;;;;;;;;;15.60;99.90;;;;;;5047540;28;19913;-82
2022/11/01 01:29:10;;;;;;;;;;;15.60;99.90;;;;;;5047964;28;19919;-82
2022/11/01 01:31:36;;;;;;;;;;;15.40;99.90;;;;;;5047537;28;19956;-83
2022/11/01 01:34:01;;;;;;;;;;;15.40;99.90;;;;;;5043116;28;19927;-83
2022/11/01 01:36:27;;;;;;;;;;;15.30;99.90;;;;;;5029607;28;20661;-82
2022/11/01 01:38:52;;;;;;;;;;;15.40;99.90;;;;;;5047665;28;20449;-82
2022/11/01 01:44:21;;;;;;;;;;;15.40;99.90;;;;;;5048082;28;19919;-81
2022/11/01 01:46:47;;;;;;;;;;;15.30;99.90;;;;;;5046492;28;19951;-81
2022/11/01 01:49:12;;;;;;;;;;;15.20;99.90;;;;;;5029643;28;19986;-82
2022/11/01 01:51:38;;;;;;;;;;;15.10;99.90;;;;;;5047745;28;19913;-81
2022/11/01 01:54:04;;;;;;;;;;;14.90;99.90;;;;;;5047979;28;20287;-81
2022/11/01 01:56:32;;;;;;;;;;;15.00;99.90;;;;;;5047810;28;19919;-82
2022/11/01 01:59:08;;;;;;;;;;;15.00;99.90;;;;;;5047605;28;19913;-81
2022/11/01 02:01:35;;;;;;;;;;;15.00;99.90;;;;;;5046804;28;19943;-81
2022/11/01 02:04:05;;;;;;;;;;;15.00;99.90;;;;;;5049986;28;19934;-81
2022/11/01 02:06:31;;;;;;;;;;;15.00;99.90;;;;;;5051170;28;19921;-82
2022/11/01 02:08:58;;;;;;;;;;;15.00;99.90;;;;;;5051546;28;19946;-81
2022/11/01 02:11:24;;;;;;;;;;;15.20;99.90;;;;;;5051029;28;20008;-82
2022/11/01 02:13:49;;;;;;;;;;;15.20;99.90;;;;;;5051130;28;20475;-82
2022/11/01 02:16:22;;;;;;;;;;;15.30;99.90;;;;;;5032489;28;19925;-82
2022/11/01 02:19:11;;;;;;;;;;;15.20;99.90;;;;;;5028947;28;19936;-82
2022/11/01 02:21:52;;;;;;;;;;;15.30;99.90;;;;;;5050346;28;19913;-82
2022/11/01 02:24:26;;;;;;;;;;;15.30;99.90;;;;;;5051254;28;19916;-83
2022/11/01 02:27:31;;;;;;;;;;;15.40;99.90;;;;;;5051104;28;19913;-82
2022/11/01 02:30:13;;;;;;;;;;;15.30;99.90;;;;;;4950135;28;20466;-83
2022/11/01 02:32:41;;;;;;;;;;;15.30;99.90;;;;;;4932610;29;19946;-82
2022/11/01 02:35:26;;;;;;;;;;;15.30;99.90;;;;;;4999511;28;19948;-82
2022/11/01 02:38:09;;;;;;;;;;;15.30;99.90;;;;;;5044418;28;19916;-83
2022/11/01 02:40:41;;;;;;;;;;;15.40;99.90;;;;;;5050415;28;20039;-82
2022/11/01 02:43:11;;;;;;;;;;;15.30;99.90;;;;;;5050743;28;19916;-84
2022/11/01 02:45:39;;;;;;;;;;;15.30;99.90;;;;;;5049462;28;20304;-82
2022/11/01 02:48:06;;;;;;;;;;;15.20;99.90;;;;;;5050406;28;20349;-82
2022/11/01 02:50:41;;;;;;;;;;;15.00;99.90;;;;;;5050740;28;20542;-82
2022/11/01 02:53:06;;;;;;;;;;;14.90;99.90;;;;;;5050487;28;20019;-82
2022/11/01 02:55:35;;;;;;;;;;;14.80;99.90;;;;;;5050151;28;20530;-82
2022/11/01 02:58:04;;;;;;;;;;;14.80;99.90;;;;;;5049405;28;19946;-82
2022/11/01 03:00:31;;;;;;;;;;;14.90;99.90;;;;;;5032171;28;19912;-82
2022/11/01 03:02:57;;;;;;;;;;;14.80;99.90;;;;;;5050124;28;20387;-82
2022/11/01 03:05:29;;;;;;;;;;;14.80;99.90;;;;;;5050343;28;20114;-82
2022/11/01 03:07:58;;;;;;;;;;;14.70;99.90;;;;;;5050115;28;20678;-82
2022/11/01 03:10:27;;;;;;;;;;;14.80;99.90;;;;;;5032423;28;19997;-82
2022/11/01 03:12:59;;;;;;;;;;;14.80;99.90;;;;;;5050183;28;20008;-82
2022/11/01 03:15:27;;;;;;;;;;;14.80;99.90;;;;;;5030895;28;19931;-82
2022/11/01 03:17:58;;;;;;;;;;;14.90;99.90;;;;;;5051270;28;20382;-81
2022/11/01 03:20:24;;;;;;;;;;;14.90;99.90;;;;;;5043501;28;20008;-83
2022/11/01 03:22:55;;;;;;;;;;;14.80;99.90;;;;;;5049881;28;19912;-82
2022/11/01 03:25:39;;;;;;;;;;;14.90;99.90;;;;;;5032036;28;19913;-82
2022/11/01 03:28:16;;;;;;;;;;;14.90;99.90;;;;;;5031664;28;19948;-82
2022/11/01 03:30:45;;;;;;;;;;;14.90;99.90;;;;;;5050382;28;19913;-82
2022/11/01 03:33:13;;;;;;;;;;;14.90;99.90;;;;;;5050204;28;19913;-82
2022/11/01 03:35:39;;;;;;;;;;;14.80;99.90;;;;;;5045772;28;19919;-82
2022/11/01 03:38:10;;;;;;;;;;;14.80;99.90;;;;;;5048081;28;19912;-82
2022/11/01 03:40:37;;;;;;;;;;;14.80;99.90;;;;;;5032046;28;19924;-83
2022/11/01 03:43:05;;;;;;;;;;;14.70;99.90;;;;;;5050163;28;19912;-82
2022/11/01 03:45:32;;;;;;;;;;;14.80;99.90;;;;;;5048983;28;19913;-82
2022/11/01 03:47:59;;;;;;;;;;;14.80;99.90;;;;;;5050187;28;19962;-82
2022/11/01 03:50:25;;;;;;;;;;;14.80;99.90;;;;;;5050345;28;19976;-82
2022/11/01 03:52:51;;;;;;;;;;;14.70;99.90;;;;;;5031439;28;19916;-84
2022/11/01 03:55:17;;;;;;;;;;;14.70;99.90;;;;;;5050014;28;20558;-83
2022/11/01 03:57:53;;;;;;;;;;;14.70;99.90;;;;;;5049499;28;19920;-83
2022/11/01 04:00:20;;;;;;;;;;;14.80;99.90;;;;;;5049884;28;19913;-83
2022/11/01 04:02:46;;;;;;;;;;;14.70;99.90;;;;;;5049482;28;19913;-82
2022/11/01 04:05:12;;;;;;;;;;;14.70;99.90;;;;;;5049474;28;19922;-82
2022/11/01 04:07:38;;;;;;;;;;;14.70;99.90;;;;;;5049128;28;19982;-82
2022/11/01 04:10:04;;;;;;;;;;;14.70;99.90;;;;;;5049085;28;20481;-82
2022/11/01 04:12:29;;;;;;;;;;;14.70;99.90;;;;;;5049254;28;19917;-85
2022/11/01 04:20:33;;;;;;;;;;;14.70;99.90;;;;;;5049695;28;19923;-83
2022/11/01 04:23:04;;;;;;;;;;;14.50;99.90;;;;;;5030815;28;19919;-83
2022/11/01 04:25:30;;;;;;;;;;;14.50;99.90;;;;;;5036225;28;19916;-83
2022/11/01 04:27:55;;;;;;;;;;;14.50;99.90;;;;;;5043911;28;20565;-81
2022/11/01 04:30:22;;;;;;;;;;;14.70;99.90;;;;;;5048590;28;19913;-83
2022/11/01 04:32:47;;;;;;;;;;;14.70;99.90;;;;;;5048249;28;19919;-83
2022/11/01 04:35:13;;;;;;;;;;;14.70;99.90;;;;;;5048373;28;20391;-83
2022/11/01 04:37:38;;;;;;;;;;;14.70;99.90;;;;;;5048643;28;20380;-83
2022/11/01 04:40:07;;;;;;;;;;;14.70;99.90;;;;;;5048421;28;19913;-83
2022/11/01 04:42:33;;;;;;;;;;;14.60;99.90;;;;;;5024367;28;20011;-83
2022/11/01 04:44:59;;;;;;;;;;;14.60;99.90;;;;;;5048244;28;19916;-82
2022/11/01 04:47:25;;;;;;;;;;;14.50;99.90;;;;;;5049345;28;19943;-82
2022/11/01 04:49:50;;;;;;;;;;;14.40;99.90;;;;;;5030415;28;20023;-82
2022/11/01 04:52:16;;;;;;;;;;;14.40;99.90;;;;;;5048654;28;19919;-85
2022/11/01 04:54:41;;;;;;;;;;;14.50;99.90;;;;;;5047936;28;19920;-85
2022/11/01 04:57:21;;;;;;;;;;;14.50;99.90;;;;;;5048532;28;20517;-84
2022/11/01 04:59:50;;;;;;;;;;;14.40;99.90;;;;;;5046315;28;20735;-84
2022/11/01 05:02:16;;;;;;;;;;;14.40;99.90;;;;;;5048115;28;19916;-84
2022/11/01 05:04:42;;;;;;;;;;;14.40;99.90;;;;;;5048238;28;19919;-86
2022/11/01 05:07:07;;;;;;;;;;;14.30;99.90;;;;;;5030577;28;21814;-84
2022/11/01 05:09:33;;;;;;;;;;;14.00;99.90;;;;;;5030597;28;19952;-86
2022/11/01 05:11:58;;;;;;;;;;;13.90;99.90;;;;;;5048408;28;20023;-86
2022/11/01 05:14:24;;;;;;;;;;;13.90;99.90;;;;;;5047561;28;19967;-85
2022/11/01 05:16:49;;;;;;;;;;;13.80;99.90;;;;;;5030565;28;19964;-85
2022/11/01 05:19:15;;;;;;;;;;;14.00;99.90;;;;;;5049274;28;20363;-85
2022/11/01 05:21:40;;;;;;;;;;;14.00;99.90;;;;;;5029641;28;20390;-84
2022/11/01 05:24:06;;;;;;;;;;;14.00;99.90;;;;;;5048727;28;19913;-84
2022/11/01 05:26:32;;;;;;;;;;;14.10;99.90;;;;;;5048018;28;20327;-84
2022/11/01 05:28:58;;;;;;;;;;;14.20;99.90;;;;;;5029642;28;19983;-82
2022/11/01 05:31:23;;;;;;;;;;;14.30;99.90;;;;;;5046864;28;19917;-81
2022/11/01 05:33:49;;;;;;;;;;;14.30;99.90;;;;;;5045793;28;19913;-81
2022/11/01 05:36:14;;;;;;;;;;;14.40;99.90;;;;;;5042520;28;20418;-82
2022/11/01 05:38:40;;;;;;;;;;;14.20;99.90;;;;;;5047559;28;19943;-83
2022/11/01 05:41:05;;;;;;;;;;;14.10;99.90;;;;;;5047371;28;20022;-82
2022/11/01 05:43:31;;;;;;;;;;;14.10;99.90;;;;;;5047735;28;20008;-81
2022/11/01 05:45:56;;;;;;;;;;;14.00;99.90;;;;;;5055712;28;19995;-85
2022/11/01 05:48:22;;;;;;;;;;;14.00;99.90;;;;;;5047141;28;20003;-82
2022/11/01 05:50:47;;;;;;;;;;;13.90;99.90;;;;;;5047318;28;19924;-81
2022/11/01 05:53:13;;;;;;;;;;;14.00;99.90;;;;;;5047665;28;19916;-82
2022/11/01 05:55:38;;;;;;;;;;;14.00;99.90;;;;;;5047800;28;19983;-80
2022/11/01 05:58:04;;;;;;;;;;;14.00;99.90;;;;;;5047397;28;19913;-80
2022/11/01 06:00:31;;;;;;;;;;;14.10;99.90;;;;;;5047608;28;19909;-80
2022/11/01 06:02:57;;;;;;;;;;;14.10;99.90;;;;;;5048168;28;19923;-83
2022/11/01 06:05:22;;;;;;;;;;;14.10;99.90;;;;;;5029936;28;19920;-83
2022/11/01 06:07:48;;;;;;;;;;;14.10;99.90;;;;;;5047737;28;20016;-84
2022/11/01 06:10:14;;;;;;;;;;;14.20;99.90;;;;;;5029703;28;19959;-84
2022/11/01 06:12:39;;;;;;;;;;;14.30;99.90;;;;;;5029884;28;19909;-83
2022/11/01 06:15:05;;;;;;;;;;;14.30;99.90;;;;;;5047533;28;19921;-84
2022/11/01 06:17:30;;;;;;;;;;;14.30;99.90;;;;;;5034924;28;19919;-85
2022/11/01 06:19:56;;;;;;;;;;;14.20;99.90;;;;;;5050979;28;20012;-84
2022/11/01 06:22:21;;;;;;;;;;;14.30;99.90;;;;;;5047531;28;19936;-82
2022/11/01 06:24:47;;;;;;;;;;;14.30;99.90;;;;;;5029623;28;20414;-86
2022/11/01 06:27:13;;;;;;;;;;;14.40;99.90;;;;;;5047332;28;19920;-81
2022/11/01 06:29:38;;;;;;;;;;;14.30;99.90;;;;;;5047137;28;20368;-82
2022/11/01 06:32:04;;;;;;;;;;;14.20;99.90;;;;;;5047084;28;19924;-79
2022/11/01 06:34:30;;;;;;;;;;;14.20;99.90;;;;;;5046997;28;19909;-79
2022/11/01 06:36:55;;;;;;;;;;;14.20;99.90;;;;;;5046851;28;19975;-84
2022/11/01 06:39:21;;;;;;;;;;;14.20;99.90;;;;;;5029171;28;19920;-90
2022/11/01 06:41:46;;;;;;;;;;;14.10;99.90;;;;;;5030253;28;19913;-79
2022/11/01 06:44:12;;;;;;;;;;;14.10;99.90;;;;;;5046659;28;20406;-80
2022/11/01 06:46:37;;;;;;;;;;;14.00;99.90;;;;;;5046485;28;20441;-81
2022/11/01 06:49:03;;;;;;;;;;;13.90;99.90;;;;;;5048127;28;20307;-82
2022/11/01 06:51:28;;;;;;;;;;;13.90;99.90;;;;;;5032353;28;20406;-82
2022/11/01 06:53:54;;;;;;;;;;;13.80;99.90;;;;;;5050646;28;20387;-80
2022/11/01 06:56:19;;;;;;;;;;;13.60;99.90;;;;;;5050851;28;20288;-80
2022/11/01 06:58:48;;;;;;;;;;;13.50;99.90;;;;;;5032163;28;19913;-81
2022/11/01 07:01:14;;;;;;;;;;;13.50;99.90;;;;;;5050443;28;19923;-81
2022/11/01 07:03:39;;;;;;;;;;;13.70;99.90;;;;;;5050171;28;19913;-80
2022/11/01 07:06:05;;;;;;;;;;;13.90;99.90;;;;;;5052164;28;20034;-81
2022/11/01 07:08:30;;;;;;;;;;;14.10;99.90;;;;;;5032339;28;19924;-81
2022/11/01 07:10:56;;;;;;;;;;;14.20;99.90;;;;;;5049818;28;19921;-80
2022/11/01 07:13:22;;;;;;;;;;;14.20;99.90;;;;;;5032274;28;19913;-82
2022/11/01 07:15:47;;;;;;;;;;;14.20;99.90;;;;;;5032486;28;19925;-80
2022/11/01 07:18:13;;;;;;;;;;;14.20;99.90;;;;;;5054081;28;20657;-80
2022/11/01 07:20:41;;;;;;;;;;;14.30;99.90;;;;;;5043969;28;20488;-79
2022/11/01 07:23:09;;;;;;;;;;;14.30;99.90;;;;;;5044361;28;19913;-78
2022/11/01 07:25:35;;;;;;;;;;;14.50;99.90;;;;;;5037580;28;19947;-79
2022/11/01 07:28:00;;;;;;;;;;;14.50;99.90;;;;;;5049568;28;19959;-79
2022/11/01 07:30:26;;;;;;;;;;;14.80;99.90;;;;;;5049497;28;20455;-79
2022/11/01 07:32:59;;;;;;;;;;;14.80;99.90;;;;;;5049570;28;19943;-78
2022/11/01 07:35:25;;;;;;;;;;;14.80;99.90;;;;;;5037733;28;19913;-78
2022/11/01 07:37:51;;;;;;;;;;;14.90;99.90;;;;;;5044492;28;20530;-79
2022/11/01 07:40:17;;;;;;;;;;;14.90;99.90;;;;;;5048674;28;19912;-78
2022/11/01 07:42:43;;;;;;;;;;;15.10;99.90;;;;;;5044978;28;19972;-79
2022/11/01 07:45:10;;;;;;;;;;;15.20;99.90;;;;;;5031340;28;20011;-78
2022/11/01 07:47:35;;;;;;;;;;;15.30;99.90;;;;;;5049722;28;20000;-80
2022/11/01 07:50:01;;;;;;;;;;;15.60;99.90;;;;;;5049407;28;20034;-79
2022/11/01 07:52:26;;;;;;;;;;;15.80;99.90;;;;;;5031427;28;20003;-79
2022/11/01 07:54:52;;;;;;;;;;;15.50;99.90;;;;;;5049435;28;20719;-79
2022/11/01 07:57:17;;;;;;;;;;;16.00;99.90;;;;;;5048578;28;20644;-80
2022/11/01 07:59:43;;;;;;;;;;;15.80;99.90;;;;;;5036575;28;20555;-81
2022/11/01 08:02:08;;;;;;;;;;;15.70;99.90;;;;;;5037699;28;19912;-79
2022/11/01 08:04:34;;;;;;;;;;;15.90;99.90;;;;;;5037081;28;19916;-83
2022/11/01 08:06:59;;;;;;;;;;;16.30;99.90;;;;;;5037776;28;19923;-80
2022/11/01 08:09:25;;;;;;;;;;;16.50;99.90;;;;;;5016893;28;19956;-80
2022/11/01 08:11:50;;;;;;;;;;;16.60;99.90;;;;;;5031666;28;19921;-79
2022/11/01 08:14:16;;;;;;;;;;;16.60;99.90;;;;;;5032540;28;19960;-79
2022/11/01 08:16:41;;;;;;;;;;;16.40;99.90;;;;;;5032957;28;19913;-79
2022/11/01 08:19:07;;;;;;;;;;;16.40;99.90;;;;;;5034609;28;20703;-79
2022/11/01 08:21:33;;;;;;;;;;;16.50;99.90;;;;;;5032589;28;19913;-79
2022/11/01 08:23:58;;;;;;;;;;;16.50;99.90;;;;;;5030747;28;19913;-79
2022/11/01 08:26:25;;;;;;;;;;;16.40;99.90;;;;;;5031673;28;19917;-78
2022/11/01 08:28:51;;;;;;;;;;;16.30;99.90;;;;;;5037844;28;19938;-80
2022/11/01 08:31:16;;;;;;;;;;;16.40;99.90;;;;;;5034795;28;19917;-79
2022/11/01 08:33:42;;;;;;;;;;;16.30;99.90;;;;;;5034359;28;20411;-80
2022/11/01 08:36:08;;;;;;;;;;;16.10;99.90;;;;;;5041316;28;20047;-80
2022/11/01 08:38:33;;;;;;;;;;;16.00;99.90;;;;;;5033216;28;19939;-79
2022/11/01 08:40:59;;;;;;;;;;;15.90;99.90;;;;;;5024882;28;19913;-79
2022/11/01 08:43:24;;;;;;;;;;;15.90;99.90;;;;;;5036728;28;20520;-83
2022/11/01 08:45:50;;;;;;;;;;;15.90;99.90;;;;;;5029337;28;19952;-82
2022/11/01 08:48:15;;;;;;;;;;;16.00;99.90;;;;;;5035582;28;20422;-84
2022/11/01 08:50:41;;;;;;;;;;;16.70;99.90;;;;;;5036225;28;19917;-81
2022/11/01 08:53:08;;;;;;;;;;;16.90;99.90;;;;;;5028908;28;19920;-82
2022/11/01 08:55:35;;;;;;;;;;;17.70;99.90;;;;;;5046193;28;20356;-81
2022/11/01 08:58:00;;;;;;;;;;;18.10;99.90;;;;;;5038297;28;19913;-84
2022/11/01 09:00:26;;;;;;;;;;;18.50;99.90;;;;;;5039736;28;19947;-83
2022/11/01 09:02:51;;;;;;;;;;;18.60;99.90;;;;;;5046813;28;19943;-82
2022/11/01 09:05:17;;;;;;;;;;;18.60;99.90;;;;;;5018635;28;19909;-82
2022/11/01 09:07:43;;;;;;;;;;;18.50;99.90;;;;;;5035365;28;20244;-81
2022/11/01 09:10:09;;;;;;;;;;;18.40;99.90;;;;;;5044344;28;19967;-81
2022/11/01 09:12:35;;;;;;;;;;;18.30;99.90;;;;;;5028801;28;20383;-81
2022/11/01 09:15:01;;;;;;;;;;;18.20;99.90;;;;;;5046534;28;20011;-81
2022/11/01 09:17:26;;;;;;;;;;;17.80;99.90;;;;;;5048926;28;20546;-80
2022/11/01 09:19:52;;;;;;;;;;;17.50;99.90;;;;;;5025008;28;20385;-80
2022/11/01 09:22:18;;;;;;;;;;;17.70;99.90;;;;;;5043713;28;19913;-80
2022/11/01 09:24:45;;;;;;;;;;;18.00;99.90;;;;;;5045164;28;20677;-80
2022/11/01 09:27:11;;;;;;;;;;;18.30;99.90;;;;;;5028014;28;20340;-80
2022/11/01 09:29:36;;;;;;;;;;;18.50;99.90;;;;;;5041491;28;20649;-81
2022/11/01 09:32:02;;;;;;;;;;;18.60;99.90;;;;;;5044894;28;19919;-83
2022/11/01 09:34:27;;;;;;;;;;;18.60;99.90;;;;;;5039918;28;20000;-81
2022/11/01 09:36:53;;;;;;;;;;;19.10;99.90;;;;;;5035684;28;21093;-79
2022/11/01 09:39:20;;;;;;;;;;;19.20;99.90;;;;;;5038820;28;19924;-85
2022/11/01 09:41:52;;;;;;;;;;;18.90;99.90;;;;;;5034899;28;19917;-83
2022/11/01 09:44:20;;;;;;;;;;;18.50;99.90;;;;;;5043591;28;19935;-80
2022/11/01 09:46:51;;;;;;;;;;;18.10;99.90;;;;;;5029797;28;20368;-79
2022/11/01 09:49:20;;;;;;;;;;;18.20;99.90;;;;;;5047952;28;19960;-80
2022/11/01 09:51:46;;;;;;;;;;;18.50;99.90;;;;;;5048007;28;19912;-80
2022/11/01 09:54:11;;;;;;;;;;;18.70;99.90;;;;;;5047909;28;19968;-81
2022/11/01 09:56:43;;;;;;;;;;;18.60;99.90;;;;;;5046979;28;19997;-80
2022/11/01 09:59:18;;;;;;;;;;;18.20;99.90;;;;;;5047955;28;19919;-81
2022/11/01 10:01:44;;;;;;;;;;;18.00;99.90;;;;;;5047796;28;20063;-80
2022/11/01 10:04:09;;;;;;;;;;;17.80;99.90;;;;;;5047975;28;20003;-80
2022/11/01 10:06:41;;;;;;;;;;;17.50;99.90;;;;;;5047524;28;19913;-80
2022/11/01 10:09:25;;;;;;;;;;;17.20;99.90;;;;;;5047742;28;19917;-80
2022/11/01 10:12:02;;;;;;;;;;;17.00;99.90;;;;;;5046998;28;19917;-81
2022/11/01 10:14:30;;;;;;;;;;;17.00;99.90;;;;;;5047118;28;20716;-83
2022/11/01 10:17:03;;;;;;;;;;;17.00;99.90;;;;;;5047387;28;19935;-82
2022/11/01 10:19:32;;;;;;;;;;;17.00;99.90;;;;;;5050999;28;19916;-82
2022/11/01 10:22:01;;;;;;;;;;;17.10;99.90;;;;;;5039959;28;19913;-82
2022/11/01 10:24:27;;;;;;;;;;;17.20;99.90;;;;;;5048974;28;19999;-81
2022/11/01 10:26:56;;;;;;;;;;;17.90;99.90;;;;;;5046668;28;20475;-81
2022/11/01 10:29:24;;;;;;;;;;;17.90;99.90;;;;;;5047158;28;19917;-80
2022/11/01 10:31:52;;;;;;;;;;;17.70;99.90;;;;;;5047356;28;19917;-81
2022/11/01 10:34:23;;;;;;;;;;;17.40;99.90;;;;;;5041649;28;19913;-82
2022/11/01 10:36:49;;;;;;;;;;;17.30;99.90;;;;;;5051201;28;19912;-83
2022/11/01 10:39:29;;;;;;;;;;;17.40;99.90;;;;;;5051131;28;19913;-82
2022/11/01 10:41:54;;;;;;;;;;;17.90;99.90;;;;;;5050393;28;19912;-81
2022/11/01 10:44:26;;;;;;;;;;;17.90;99.90;;;;;;5028061;28;20477;-81
2022/11/01 10:46:52;;;;;;;;;;;18.30;99.90;;;;;;5044617;28;19920;-84
2022/11/01 10:49:23;;;;;;;;;;;18.10;99.90;;;;;;5048207;28;19928;-80
2022/11/01 10:51:50;;;;;;;;;;;18.00;99.90;;;;;;5030250;28;19917;-81
2022/11/01 10:54:21;;;;;;;;;;;18.20;99.90;;;;;;5050737;28;19917;-81
2022/11/01 10:56:48;;;;;;;;;;;18.40;99.90;;;;;;5048123;28;19940;-82
2022/11/01 10:59:16;;;;;;;;;;;18.30;99.90;;;;;;5050569;28;19964;-83
2022/11/01 11:01:43;;;;;;;;;;;18.20;99.90;;;;;;5031051;28;19920;-81
2022/11/01 11:04:14;;;;;;;;;;;18.50;99.90;;;;;;5049602;28;19967;-82
2022/11/01 11:06:41;;;;;;;;;;;18.80;98.90;;;;;;5049570;28;19971;-82
2022/11/01 11:09:17;;;;;;;;;;;18.70;98.00;;;;;;5049448;28;19988;-82
2022/11/01 11:11:44;;;;;;;;;;;18.40;99.60;;;;;;5046823;28;19924;-80
2022/11/01 11:14:10;;;;;;;;;;;18.10;98.80;;;;;;5049937;28;19917;-81
2022/11/01 11:16:35;;;;;;;;;;;18.10;99.00;;;;;;5048361;28;19956;-80
2022/11/01 11:19:21;;;;;;;;;;;18.10;98.60;;;;;;5048798;28;19971;-80
2022/11/01 11:21:48;;;;;;;;;;;18.20;99.80;;;;;;5044452;28;20464;-80
2022/11/01 11:24:18;;;;;;;;;;;18.10;98.70;;;;;;5047962;28;19928;-80
2022/11/01 11:26:44;;;;;;;;;;;18.40;99.40;;;;;;5046977;28;19913;-83
2022/11/01 11:29:15;;;;;;;;;;;18.50;98.20;;;;;;5047196;28;19979;-78
2022/11/01 11:31:40;;;;;;;;;;;18.90;97.80;;;;;;5046372;28;19959;-79
2022/11/01 11:34:24;;;;;;;;;;;18.60;98.00;;;;;;5036873;28;19952;-80
2022/11/01 11:36:53;;;;;;;;;;;18.80;97.80;;;;;;5042870;28;20027;-79
2022/11/01 11:39:23;;;;;;;;;;;18.60;97.60;;;;;;5042672;28;19925;-77
2022/11/01 11:41:49;;;;;;;;;;;18.50;97.00;;;;;;5048383;28;19990;-77
2022/11/01 11:44:33;;;;;;;;;;;18.90;96.30;;;;;;5046761;28;19917;-80
2022/11/01 11:46:58;;;;;;;;;;;18.90;96.30;;;;;;5027977;28;19984;-81
2022/11/01 11:49:25;;;;;;;;;;;18.90;97.00;;;;;;5041961;28;20671;-78
2022/11/01 11:51:51;;;;;;;;;;;18.90;95.60;;;;;;5047995;28;19928;-79
2022/11/01 11:54:20;;;;;;;;;;;18.80;96.40;;;;;;5028628;28;19916;-78
2022/11/01 11:56:49;;;;;;;;;;;18.90;96.10;;;;;;5053784;28;19913;-78
2022/11/01 11:59:43;;;;;;;;;;;18.70;95.90;;;;;;5056114;28;19920;-79
2022/11/01 12:02:26;;;;;;;;;;;18.90;96.20;;;;;;5031708;28;19959;-79
2022/11/01 12:04:55;;;;;;;;;;;18.60;96.90;;;;;;5031131;28;19994;-79
2022/11/01 12:07:30;;;;;;;;;;;18.70;97.30;;;;;;5047946;28;19909;-77
2022/11/01 12:10:00;;;;;;;;;;;18.80;96.80;;;;;;5040571;28;19956;-79
2022/11/01 12:12:27;;;;;;;;;;;18.80;97.00;;;;;;5030473;28;19959;-78
2022/11/01 12:14:54;;;;;;;;;;;18.80;98.10;;;;;;5048962;28;19925;-78
2022/11/01 12:17:42;;;;;;;;;;;18.90;97.30;;;;;;5048714;28;19917;-78
2022/11/01 12:20:13;;;;;;;;;;;18.70;97.00;;;;;;5044187;28;20007;-78
2022/11/01 12:22:41;;;;;;;;;;;18.70;95.80;;;;;;5022214;28;19923;-78
2022/11/01 12:25:12;;;;;;;;;;;18.70;96.50;;;;;;5046761;28;19924;-78
2022/11/01 12:27:39;;;;;;;;;;;18.90;95.50;;;;;;5049283;28;19952;-78
2022/11/01 12:30:07;;;;;;;;;;;19.00;95.70;;;;;;5049768;28;20400;-80
2022/11/01 12:32:48;;;;;;;;;;;18.70;95.10;;;;;;5049175;28;20593;-80
2022/11/01 12:35:17;;;;;;;;;;;18.60;95.10;;;;;;5042578;28;19912;-80
2022/11/01 12:37:42;;;;;;;;;;;18.60;94.60;;;;;;5029148;28;19917;-81
2022/11/01 12:40:20;;;;;;;;;;;18.40;95.60;;;;;;5038777;28;19928;-79
2022/11/01 12:42:50;;;;;;;;;;;18.60;95.00;;;;;;5044351;28;19913;-79
2022/11/01 12:45:34;;;;;;;;;;;18.40;95.60;;;;;;5049571;28;20009;-79
2022/11/01 12:48:06;;;;;;;;;;;18.30;95.00;;;;;;5031595;28;19920;-79
2022/11/01 12:50:39;;;;;;;;;;;18.30;95.30;;;;;;5035339;28;19917;-80
2022/11/01 12:53:16;;;;;;;;;;;18.50;95.20;;;;;;5031765;28;20402;-84
2022/11/01 12:55:42;;;;;;;;;;;18.20;93.50;;;;;;5025083;28;19913;-82
2022/11/01 12:58:10;;;;;;;;;;;18.20;94.70;;;;;;5036214;28;19912;-81
2022/11/01 13:00:55;;;;;;;;;;;18.20;93.50;;;;;;5029247;28;19917;-80
2022/11/01 13:03:39;;;;;;;;;;;18.20;94.70;;;;;;5038848;28;19917;-77
2022/11/01 13:06:15;;;;;;;;;;;18.20;96.20;;;;;;5047437;28;20438;-80
2022/11/01 13:09:07;;;;;;;;;;;18.30;95.10;;;;;;5041175;28;19931;-81
2022/11/01 13:11:52;;;;;;;;;;;18.60;95.40;;;;;;5025803;28;19981;-82
2022/11/01 13:14:26;;;;;;;;;;;18.60;95.40;;;;;;5047369;28;19927;-83
2022/11/01 13:16:58;;;;;;;;;;;18.60;94.20;;;;;;5046043;28;19921;-84
2022/11/01 13:19:30;;;;;;;;;;;18.60;95.60;;;;;;5031856;28;19921;-83
2022/11/01 13:22:00;;;;;;;;;;;18.30;96.00;;;;;;5041290;28;20802;-84
2022/11/01 13:24:26;;;;;;;;;;;18.70;95.00;;;;;;5040947;28;20009;-84
2022/11/01 13:27:04;;;;;;;;;;;18.30;94.20;;;;;;5026046;28;19982;-82
2022/11/01 13:29:43;;;;;;;;;;;17.90;93.80;;;;;;5045239;28;19974;-80
2022/11/01 13:32:24;;;;;;;;;;;17.50;94.20;;;;;;5038457;28;19918;-79
2022/11/01 13:35:09;;;;;;;;;;;17.30;95.00;;;;;;5044323;28;20304;-78
2022/11/01 13:38:01;;;;;;;;;;;17.30;96.90;;;;;;4974277;28;19940;-80
2022/11/01 13:40:30;;;;;;;;;;;17.20;95.00;;;;;;4998834;28;19916;-81
2022/11/01 13:42:58;;;;;;;;;;;17.20;94.80;;;;;;5038128;28;19927;-81
2022/11/01 13:45:33;;;;;;;;;;;17.20;95.60;;;;;;5051014;28;19916;-82
2022/11/01 13:48:18;;;;;;;;;;;17.20;94.10;;;;;;5046393;28;19970;-81
2022/11/01 13:50:59;;;;;;;;;;;17.40;95.30;;;;;;5032740;28;19917;-78
2022/11/01 13:53:34;;;;;;;;;;;17.30;95.20;;;;;;5040938;28;20534;-77
2022/11/01 13:56:03;;;;;;;;;;;17.50;95.20;;;;;;5047194;28;19960;-77
2022/11/01 13:58:30;;;;;;;;;;;17.80;94.80;;;;;;5047731;28;19912;-78
2022/11/01 14:00:56;;;;;;;;;;;17.90;94.40;;;;;;5046888;28;20676;-77
2022/11/01 14:03:23;;;;;;;;;;;18.00;93.30;;;;;;5026884;28;20056;-87
2022/11/01 14:06:10;;;;;;;;;;;17.90;94.30;;;;;;5029939;28;19924;-80
2022/11/01 14:08:50;;;;;;;;;;;17.80;93.90;;;;;;5047054;28;19921;-80
2022/11/01 14:11:35;;;;;;;;;;;17.50;94.00;;;;;;5047649;28;19998;-80
2022/11/01 14:14:20;;;;;;;;;;;17.60;94.80;;;;;;5041077;28;20003;-80
2022/11/01 14:16:46;;;;;;;;;;;17.50;95.00;;;;;;5046438;28;19916;-77
2022/11/01 14:19:13;;;;;;;;;;;17.70;95.30;;;;;;5029231;28;19913;-79
2022/11/01 14:21:43;;;;;;;;;;;17.90;95.00;;;;;;5038156;28;19958;-79
2022/11/01 14:24:23;;;;;;;;;;;17.70;95.40;;;;;;5047748;28;19953;-78
2022/11/01 14:26:59;;;;;;;;;;;17.20;95.90;;;;;;5029170;28;19913;-79
2022/11/01 14:29:25;;;;;;;;;;;17.20;95.80;;;;;;5029322;28;19966;-79
2022/11/01 14:31:52;;;;;;;;;;;17.00;96.60;;;;;;5047799;28;19948;-79
2022/11/01 14:34:30;;;;;;;;;;;16.80;96.50;;;;;;5047198;28;19959;-79